sensor_id;sensor_type;location;lat;lon;timestamp;pressure;altitude;pressure_sealevel;temperature;humidity
42587;BME280;28216;53.362;-6.288;2023-05-21T00:01:16;102326.28;;;15.15;100.00
42587;BME280;28216;53.362;-6.288;2023-05-21T00:03:42;102324.47;;;15.15;100.00
42587;BME280;28216;53.362;-6.288;2023-05-21T00:06:11;102325.31;;;15.16;100.00
42587;BME280;28216;53.362;-6.288;2023-05-21T00:08:38;102325.63;;;15.13;100.00
42587;BME280;28216;53.362;-6.288;2023-05-21T00:11:04;102323.13;;;15.11;100.00
42587;BME280;28216;53.362;-6.288;2023-05-21T00:13:30;102320.63;;;15.10;100.00
42587;BME280;28216;53.362;-6.288;2023-05-21T00:15:55;102315.66;;;15.07;100.00
42587;BME280;28216;53.362;-6.288;2023-05-21T00:18:21;102322.75;;;15.06;100.00
42587;BME280;28216;53.362;-6.288;2023-05-21T00:20:46;102315.94;;;15.04;100.00
42587;BME280;28216;53.362;-6.288;2023-05-21T00:23:12;102315.94;;;15.04;100.00
42587;BME280;28216;53.362;-6.288;2023-05-21T00:25:37;102303.72;;;15.03;100.00
42587;BME280;28216;53.362;-6.288;2023-05-21T00:28:03;102314.44;;;15.01;100.00
42587;BME280;28216;53.362;-6.288;2023-05-21T00:30:29;102304.84;;;15.00;100.00
42587;BME280;28216;53.362;-6.288;2023-05-21T00:32:54;102299.72;;;14.99;100.00
42587;BME280;28216;53.362;-6.288;2023-05-21T00:35:22;102294.59;;;14.97;100.00
42587;BME280;28216;53.362;-6.288;2023-05-21T00:37:48;102302.66;;;14.96;100.00
42587;BME280;28216;53.362;-6.288;2023-05-21T00:40:14;102298.53;;;14.93;100.00
42587;BME280;28216;53.362;-6.288;2023-05-21T00:42:40;102298.53;;;14.93;100.00
42587;BME280;28216;53.362;-6.288;2023-05-21T00:45:06;102292.41;;;14.92;100.00
42587;BME280;28216;53.362;-6.288;2023-05-21T00:47:33;102285.47;;;14.91;100.00
42587;BME280;28216;53.362;-6.288;2023-05-21T00:50:01;102282.00;;;14.91;100.00
42587;BME280;28216;53.362;-6.288;2023-05-21T00:52:26;102285.47;;;14.91;100.00
42587;BME280;28216;53.362;-6.288;2023-05-21T00:54:52;102287.13;;;14.92;100.00
42587;BME280;28216;53.362;-6.288;2023-05-21T00:57:18;102286.44;;;14.90;100.00
42587;BME280;28216;53.362;-6.288;2023-05-21T00:59:51;102285.47;;;14.91;100.00
42587;BME280;28216;53.362;-6.288;2023-05-21T01:02:17;102282.97;;;14.90;100.00
42587;BME280;28216;53.362;-6.288;2023-05-21T01:04:46;102290.91;;;14.90;100.00
42587;BME280;28216;53.362;-6.288;2023-05-21T01:07:11;102286.75;;;14.87;100.00
42587;BME280;28216;53.362;-6.288;2023-05-21T01:09:41;102281.47;;;14.87;100.00
42587;BME280;28216;53.362;-6.288;2023-05-21T01:12:08;102279.81;;;14.86;100.00
42587;BME280;28216;53.362;-6.288;2023-05-21T01:14:36;102271.88;;;14.86;100.00
42587;BME280;28216;53.362;-6.288;2023-05-21T01:17:02;102267.53;;;14.85;100.00
42587;BME280;28216;53.362;-6.288;2023-05-21T01:19:29;102269.50;;;14.83;100.00
42587;BME280;28216;53.362;-6.288;2023-05-21T01:27:07;102266.50;;;14.78;100.00
42587;BME280;28216;53.362;-6.288;2023-05-21T01:29:34;102261.22;;;14.78;100.00
42587;BME280;28216;53.362;-6.288;2023-05-21T01:35:02;102262.88;;;14.79;100.00
42587;BME280;28216;53.362;-6.288;2023-05-21T01:37:54;102259.53;;;14.77;100.00
42587;BME280;28216;53.362;-6.288;2023-05-21T01:43:11;102260.00;;;14.73;100.00
42587;BME280;28216;53.362;-6.288;2023-05-21T01:45:40;102256.69;;;14.71;100.00
42587;BME280;28216;53.362;-6.288;2023-05-21T01:48:07;102260.28;;;14.70;100.00
42587;BME280;28216;53.362;-6.288;2023-05-21T01:50:34;102261.44;;;14.67;100.00
42587;BME280;28216;53.362;-6.288;2023-05-21T01:53:01;102258.09;;;14.65;100.00
42587;BME280;28216;53.362;-6.288;2023-05-21T01:55:28;102254.78;;;14.63;100.00
42587;BME280;28216;53.362;-6.288;2023-05-21T01:57:55;102256.06;;;14.59;100.00
42587;BME280;28216;53.362;-6.288;2023-05-21T02:00:22;102257.19;;;14.56;100.00
42587;BME280;28216;53.362;-6.288;2023-05-21T02:02:48;102251.22;;;14.54;100.00
42587;BME280;28216;53.362;-6.288;2023-05-21T02:05:14;102252.06;;;14.55;100.00
42587;BME280;28216;53.362;-6.288;2023-05-21T02:07:40;102255.53;;;14.55;100.00
42587;BME280;28216;53.362;-6.288;2023-05-21T02:10:06;102249.28;;;14.56;100.00
42587;BME280;28216;53.362;-6.288;2023-05-21T02:12:32;102252.06;;;14.55;100.00
42587;BME280;28216;53.362;-6.288;2023-05-21T02:14:57;102263.44;;;14.55;100.00
42587;BME280;28216;53.362;-6.288;2023-05-21T02:17:24;102259.44;;;14.51;100.00
42587;BME280;28216;53.362;-6.288;2023-05-21T02:19:50;102263.22;;;14.49;100.00
42587;BME280;28216;53.362;-6.288;2023-05-21T02:22:16;102249.34;;;14.47;100.00
42587;BME280;28216;53.362;-6.288;2023-05-21T02:24:41;102257.41;;;14.45;100.00
42587;BME280;28216;53.362;-6.288;2023-05-21T02:27:07;102264.75;;;14.42;100.00
42587;BME280;28216;53.362;-6.288;2023-05-21T02:29:35;102258.78;;;14.40;100.00
42587;BME280;28216;53.362;-6.288;2023-05-21T02:32:00;102265.34;;;14.36;100.00
42587;BME280;28216;53.362;-6.288;2023-05-21T02:34:26;102263.81;;;14.33;100.00
42587;BME280;28216;53.362;-6.288;2023-05-21T02:36:55;102270.38;;;14.29;100.00
42587;BME280;28216;53.362;-6.288;2023-05-21T02:39:20;102259.88;;;14.19;100.00
42587;BME280;28216;53.362;-6.288;2023-05-21T02:41:46;102257.22;;;14.19;100.00
42587;BME280;28216;53.362;-6.288;2023-05-21T02:44:12;102255.72;;;14.17;100.00
42587;BME280;28216;53.362;-6.288;2023-05-21T02:46:38;102258.50;;;14.15;100.00
42587;BME280;28216;53.362;-6.288;2023-05-21T02:49:03;102259.34;;;14.16;100.00
42587;BME280;28216;53.362;-6.288;2023-05-21T02:51:29;102257.09;;;14.11;100.00
42587;BME280;28216;53.362;-6.288;2023-05-21T02:53:54;102260.56;;;14.12;100.00
42587;BME280;28216;53.362;-6.288;2023-05-21T02:56:20;102260.88;;;14.09;100.00
42587;BME280;28216;53.362;-6.288;2023-05-21T02:58:45;102259.34;;;14.06;100.00
42587;BME280;28216;53.362;-6.288;2023-05-21T03:01:11;102258.66;;;14.04;100.00
42587;BME280;28216;53.362;-6.288;2023-05-21T03:03:36;102254.38;;;14.03;100.00
42587;BME280;28216;53.362;-6.288;2023-05-21T03:06:02;102250.94;;;13.93;100.00
42587;BME280;28216;53.362;-6.288;2023-05-21T03:08:27;102248.84;;;13.96;100.00
42587;BME280;28216;53.362;-6.288;2023-05-21T03:10:53;102251.34;;;13.98;100.00
42587;BME280;28216;53.362;-6.288;2023-05-21T03:13:19;102251.03;;;14.01;100.00
42587;BME280;28216;53.362;-6.288;2023-05-21T03:15:45;102250.34;;;13.99;100.00
42587;BME280;28216;53.362;-6.288;2023-05-21T03:18:11;102242.59;;;13.97;100.00
42587;BME280;28216;53.362;-6.288;2023-05-21T03:20:37;102244.78;;;14.02;100.00
42587;BME280;28216;53.362;-6.288;2023-05-21T03:23:08;102242.00;;;14.04;100.00
42587;BME280;28216;53.362;-6.288;2023-05-21T03:25:33;102247.97;;;14.06;100.00
42587;BME280;28216;53.362;-6.288;2023-05-21T03:28:01;102239.22;;;14.05;100.00
42587;BME280;28216;53.362;-6.288;2023-05-21T03:30:26;102235.63;;;14.06;100.00
42587;BME280;28216;53.362;-6.288;2023-05-21T03:32:52;102239.38;;;14.04;100.00
42587;BME280;28216;53.362;-6.288;2023-05-21T03:35:17;102240.34;;;14.03;100.00
42587;BME280;28216;53.362;-6.288;2023-05-21T03:37:43;102240.19;;;14.04;100.00
42587;BME280;28216;53.362;-6.288;2023-05-21T03:40:09;102240.19;;;14.04;100.00
42587;BME280;28216;53.362;-6.288;2023-05-21T03:42:35;102244.78;;;14.02;100.00
42587;BME280;28216;53.362;-6.288;2023-05-21T03:45:01;102251.19;;;13.99;100.00
42587;BME280;28216;53.362;-6.288;2023-05-21T03:47:26;102249.53;;;13.98;100.00
42587;BME280;28216;53.362;-6.288;2023-05-21T03:49:52;102248.97;;;13.95;100.00
42587;BME280;28216;53.362;-6.288;2023-05-21T03:52:17;102250.78;;;13.94;100.00
42587;BME280;28216;53.362;-6.288;2023-05-21T03:54:43;102243.03;;;13.93;100.00
42587;BME280;28216;53.362;-6.288;2023-05-21T03:57:08;102246.19;;;13.96;100.00
42587;BME280;28216;53.362;-6.288;2023-05-21T03:59:34;102249.81;;;13.95;100.00
42587;BME280;28216;53.362;-6.288;2023-05-21T04:01:59;102243.56;;;13.96;100.00
42587;BME280;28216;53.362;-6.288;2023-05-21T04:04:25;102249.38;;;14.00;100.00
42587;BME280;28216;53.362;-6.288;2023-05-21T04:06:50;102238.00;;;13.99;100.00
42587;BME280;28216;53.362;-6.288;2023-05-21T04:09:18;102237.03;;;14.00;100.00
42587;BME280;28216;53.362;-6.288;2023-05-21T04:11:43;102238.69;;;14.02;100.00
42587;BME280;28216;53.362;-6.288;2023-05-21T04:14:09;102231.47;;;14.04;100.00
42587;BME280;28216;53.362;-6.288;2023-05-21T04:16:36;102233.13;;;14.05;100.00
42587;BME280;28216;53.362;-6.288;2023-05-21T04:19:03;102225.06;;;14.06;100.00
42587;BME280;28216;53.362;-6.288;2023-05-21T04:21:28;102228.69;;;14.05;100.00
42587;BME280;28216;53.362;-6.288;2023-05-21T04:23:54;102225.22;;;14.05;100.00
42587;BME280;28216;53.362;-6.288;2023-05-21T04:26:22;102236.03;;;14.02;100.00
42587;BME280;28216;53.362;-6.288;2023-05-21T04:28:48;102228.97;;;14.02;100.00
42587;BME280;28216;53.362;-6.288;2023-05-21T04:31:14;102229.94;;;14.01;100.00
42587;BME280;28216;53.362;-6.288;2023-05-21T04:33:40;102224.81;;;13.99;100.00
42587;BME280;28216;53.362;-6.288;2023-05-21T04:36:10;102230.78;;;14.02;100.00
42587;BME280;28216;53.362;-6.288;2023-05-21T04:38:36;102230.63;;;14.03;100.00
42587;BME280;28216;53.362;-6.288;2023-05-21T04:41:02;102237.56;;;14.04;100.00
42587;BME280;28216;53.362;-6.288;2023-05-21T04:43:28;102230.63;;;14.03;100.00
42587;BME280;28216;53.362;-6.288;2023-05-21T04:45:55;102233.13;;;14.05;100.00
42587;BME280;28216;53.362;-6.288;2023-05-21T04:48:21;102232.00;;;14.07;100.00
42587;BME280;28216;53.362;-6.288;2023-05-21T04:50:51;102240.59;;;14.09;100.00
42587;BME280;28216;53.362;-6.288;2023-05-21T04:53:17;102234.34;;;14.10;100.00
42587;BME280;28216;53.362;-6.288;2023-05-21T04:55:43;102225.34;;;14.13;100.00
42587;BME280;28216;53.362;-6.288;2023-05-21T04:58:08;102223.38;;;14.15;100.00
42587;BME280;28216;53.362;-6.288;2023-05-21T05:00:38;102213.50;;;14.17;100.00
42587;BME280;28216;53.362;-6.288;2023-05-21T05:03:04;102215.19;;;14.18;100.00
42587;BME280;28216;53.362;-6.288;2023-05-21T05:05:29;102223.47;;;14.23;100.00
42587;BME280;28216;53.362;-6.288;2023-05-21T05:07:55;102218.19;;;14.23;100.00
42587;BME280;28216;53.362;-6.288;2023-05-21T05:10:22;102221.22;;;14.28;100.00
42587;BME280;28216;53.362;-6.288;2023-05-21T05:12:48;102215.81;;;14.29;100.00
42587;BME280;28216;53.362;-6.288;2023-05-21T05:15:13;102215.50;;;14.32;100.00
42587;BME280;28216;53.362;-6.288;2023-05-21T05:17:39;102214.53;;;14.34;100.00
42587;BME280;28216;53.362;-6.288;2023-05-21T05:20:07;102212.41;;;14.37;100.00
42587;BME280;28216;53.362;-6.288;2023-05-21T05:22:33;102205.75;;;14.43;100.00
42587;BME280;28216;53.362;-6.288;2023-05-21T05:24:58;102212.38;;;14.47;100.00
42587;BME280;28216;53.362;-6.288;2023-05-21T05:27:24;102212.91;;;14.50;100.00
42587;BME280;28216;53.362;-6.288;2023-05-21T05:29:49;102210.50;;;14.57;100.00
42587;BME280;28216;53.362;-6.288;2023-05-21T05:32:15;102212.69;;;14.61;100.00
42587;BME280;28216;53.362;-6.288;2023-05-21T05:34:40;102216.31;;;14.60;100.00
42587;BME280;28216;53.362;-6.288;2023-05-21T05:37:07;102222.28;;;14.62;100.00
42587;BME280;28216;53.362;-6.288;2023-05-21T05:39:32;102223.78;;;14.65;100.00
42587;BME280;28216;53.362;-6.288;2023-05-21T05:41:58;102230.88;;;14.65;100.00
42587;BME280;28216;53.362;-6.288;2023-05-21T05:44:23;102222.81;;;14.66;100.00
42587;BME280;28216;53.362;-6.288;2023-05-21T05:46:49;102223.63;;;14.67;100.00
42587;BME280;28216;53.362;-6.288;2023-05-21T05:49:14;102221.81;;;14.67;100.00
42587;BME280;28216;53.362;-6.288;2023-05-21T05:51:40;102220.03;;;14.68;100.00
42587;BME280;28216;53.362;-6.288;2023-05-21T05:54:05;102225.53;;;14.74;100.00
42587;BME280;28216;53.362;-6.288;2023-05-21T05:56:31;102212.19;;;14.76;100.00
42587;BME280;28216;53.362;-6.288;2023-05-21T05:58:57;102218.59;;;14.73;100.00
42587;BME280;28216;53.362;-6.288;2023-05-21T06:01:23;102225.38;;;14.76;100.00
42587;BME280;28216;53.362;-6.288;2023-05-21T06:03:49;102228.16;;;14.74;100.00
42587;BME280;28216;53.362;-6.288;2023-05-21T06:06:14;102225.22;;;14.77;100.00
42587;BME280;28216;53.362;-6.288;2023-05-21T06:08:41;102229.38;;;14.80;100.00
42587;BME280;28216;53.362;-6.288;2023-05-21T06:11:06;102227.94;;;14.85;100.00
42587;BME280;28216;53.362;-6.288;2023-05-21T06:13:32;102240.72;;;14.90;100.00
42587;BME280;28216;53.362;-6.288;2023-05-21T06:15:58;102234.31;;;14.92;100.00
42587;BME280;28216;53.362;-6.288;2023-05-21T06:18:23;102238.59;;;14.93;100.00
42587;BME280;28216;53.362;-6.288;2023-05-21T06:20:49;102244.56;;;14.96;100.00
42587;BME280;28216;53.362;-6.288;2023-05-21T06:23:14;102240.78;;;14.98;100.00
42587;BME280;28216;53.362;-6.288;2023-05-21T06:25:40;102237.16;;;14.99;100.00
42587;BME280;28216;53.362;-6.288;2023-05-21T06:28:06;102241.31;;;15.02;100.00
42587;BME280;28216;53.362;-6.288;2023-05-21T06:30:31;102247.81;;;15.07;100.00
42587;BME280;28216;53.362;-6.288;2023-05-21T06:32:56;102244.19;;;15.08;100.00
42587;BME280;28216;53.362;-6.288;2023-05-21T06:35:22;102249.16;;;15.11;100.00
42587;BME280;28216;53.362;-6.288;2023-05-21T06:37:48;102249.38;;;15.18;100.00
42587;BME280;28216;53.362;-6.288;2023-05-21T06:40:14;102253.53;;;15.20;100.00
42587;BME280;28216;53.362;-6.288;2023-05-21T06:42:42;102247.25;;;15.21;100.00
42587;BME280;28216;53.362;-6.288;2023-05-21T06:45:08;102246.84;;;15.34;100.00
42587;BME280;28216;53.362;-6.288;2023-05-21T06:47:33;102255.97;;;15.40;100.00
42587;BME280;28216;53.362;-6.288;2023-05-21T06:49:59;102253.81;;;15.35;100.00
42587;BME280;28216;53.362;-6.288;2023-05-21T06:52:25;102267.69;;;15.37;100.00
42587;BME280;28216;53.362;-6.288;2023-05-21T06:54:51;102266.75;;;15.46;100.00
42587;BME280;28216;53.362;-6.288;2023-05-21T06:57:16;102253.69;;;15.45;100.00
42587;BME280;28216;53.362;-6.288;2023-05-21T06:59:42;102265.31;;;15.52;100.00
42587;BME280;28216;53.362;-6.288;2023-05-21T07:02:07;102265.28;;;15.62;100.00
42587;BME280;28216;53.362;-6.288;2023-05-21T07:04:33;102270.84;;;15.58;100.00
42587;BME280;28216;53.362;-6.288;2023-05-21T07:07:00;102267.59;;;15.65;100.00
42587;BME280;28216;53.362;-6.288;2023-05-21T07:09:25;102266.78;;;15.64;100.00
42587;BME280;28216;53.362;-6.288;2023-05-21T07:11:51;102270.47;;;15.71;100.00
42587;BME280;28216;53.362;-6.288;2023-05-21T07:14:17;102271.28;;;15.72;100.00
42587;BME280;28216;53.362;-6.288;2023-05-21T07:16:43;102267.03;;;15.79;100.00
42587;BME280;28216;53.362;-6.288;2023-05-21T07:19:09;102270.19;;;15.82;100.00
42587;BME280;28216;53.362;-6.288;2023-05-21T07:21:34;102267.22;;;15.85;100.00
42587;BME280;28216;53.362;-6.288;2023-05-21T07:24:00;102270.72;;;15.86;100.00
42587;BME280;28216;53.362;-6.288;2023-05-21T07:26:25;102273.88;;;15.89;100.00
42587;BME280;28216;53.362;-6.288;2023-05-21T07:28:51;102268.09;;;15.94;100.00
42587;BME280;28216;53.362;-6.288;2023-05-21T07:31:18;102257.88;;;15.99;100.00
42587;BME280;28216;53.362;-6.288;2023-05-21T07:33:51;102267.81;;;16.05;100.00
42587;BME280;28216;53.362;-6.288;2023-05-21T07:36:17;102264.19;;;16.06;100.00
42587;BME280;28216;53.362;-6.288;2023-05-21T07:38:46;102263.88;;;16.09;100.00
42587;BME280;28216;53.362;-6.288;2023-05-21T07:41:32;102272.84;;;16.16;100.00
42587;BME280;28216;53.362;-6.288;2023-05-21T07:43:57;102268.22;;;16.18;100.00
42587;BME280;28216;53.362;-6.288;2023-05-21T07:46:23;102273.03;;;16.23;100.00
42587;BME280;28216;53.362;-6.288;2023-05-21T07:48:48;102267.56;;;16.25;100.00
42587;BME280;28216;53.362;-6.288;2023-05-21T07:51:14;102268.16;;;16.36;100.00
42587;BME280;28216;53.362;-6.288;2023-05-21T07:53:40;102274.97;;;16.47;100.00
42587;BME280;28216;53.362;-6.288;2023-05-21T07:56:08;102268.03;;;16.62;100.00
42587;BME280;28216;53.362;-6.288;2023-05-21T08:01:41;102265.13;;;16.90;100.00
42587;BME280;28216;53.362;-6.288;2023-05-21T08:07:10;102263.69;;;17.20;100.00
42587;BME280;28216;53.362;-6.288;2023-05-21T08:09:39;102264.34;;;17.46;100.00
42587;BME280;28216;53.362;-6.288;2023-05-21T08:12:23;102271.13;;;17.48;100.00
42587;BME280;28216;53.362;-6.288;2023-05-21T08:14:49;102265.78;;;17.65;100.00
42587;BME280;28216;53.362;-6.288;2023-05-21T08:17:15;102267.78;;;17.79;100.00
42587;BME280;28216;53.362;-6.288;2023-05-21T08:19:41;102275.41;;;17.90;100.00
42587;BME280;28216;53.362;-6.288;2023-05-21T08:22:06;102273.56;;;17.91;100.00
42587;BME280;28216;53.362;-6.288;2023-05-21T08:24:32;102277.06;;;17.91;100.00
42587;BME280;28216;53.362;-6.288;2023-05-21T08:27:05;102279.22;;;17.79;100.00
42587;BME280;28216;53.362;-6.288;2023-05-21T08:29:32;102277.56;;;17.87;100.00
42587;BME280;28216;53.362;-6.288;2023-05-21T08:31:58;102276.34;;;18.05;100.00
42587;BME280;28216;53.362;-6.288;2023-05-21T08:34:23;102282.31;;;18.07;100.00
42587;BME280;28216;53.362;-6.288;2023-05-21T08:36:49;102274.91;;;18.34;100.00
42587;BME280;28216;53.362;-6.288;2023-05-21T08:39:14;102279.84;;;18.37;100.00
42587;BME280;28216;53.362;-6.288;2023-05-21T08:41:40;102281.59;;;18.53;100.00
42587;BME280;28216;53.362;-6.288;2023-05-21T08:44:11;102280.50;;;18.39;100.00
42587;BME280;28216;53.362;-6.288;2023-05-21T08:46:40;102270.28;;;18.28;100.00
42587;BME280;28216;53.362;-6.288;2023-05-21T08:49:11;102277.28;;;18.21;100.00
42587;BME280;28216;53.362;-6.288;2023-05-21T08:51:45;102283.28;;;18.15;100.00
42587;BME280;28216;53.362;-6.288;2023-05-21T08:54:14;102284.13;;;18.07;100.00
42587;BME280;28216;53.362;-6.288;2023-05-21T08:56:41;102287.66;;;17.99;100.00
42587;BME280;28216;53.362;-6.288;2023-05-21T08:59:11;102271.09;;;17.65;100.00
42587;BME280;28216;53.362;-6.288;2023-05-21T09:01:37;102283.69;;;17.79;100.00
42587;BME280;28216;53.362;-6.288;2023-05-21T09:04:06;102281.38;;;17.76;100.00
42587;BME280;28216;53.362;-6.288;2023-05-21T09:06:35;102282.06;;;17.70;100.00
42587;BME280;28216;53.362;-6.288;2023-05-21T09:09:08;102284.03;;;17.60;100.00
42587;BME280;28216;53.362;-6.288;2023-05-21T09:11:37;102280.38;;;17.61;100.00
42587;BME280;28216;53.362;-6.288;2023-05-21T09:14:05;102283.53;;;17.56;100.00
42587;BME280;28216;53.362;-6.288;2023-05-21T09:16:34;102280.72;;;17.58;100.00
42587;BME280;28216;53.362;-6.288;2023-05-21T09:19:02;102287.19;;;17.55;100.00
42587;BME280;28216;53.362;-6.288;2023-05-21T09:21:29;102284.22;;;17.50;100.00
42587;BME280;28216;53.362;-6.288;2023-05-21T09:24:04;102291.50;;;17.48;100.00
42587;BME280;28216;53.362;-6.288;2023-05-21T09:26:41;102291.66;;;17.55;100.00
42587;BME280;28216;53.362;-6.288;2023-05-21T09:32:28;102289.84;;;17.47;100.00
42587;BME280;28216;53.362;-6.288;2023-05-21T09:35:11;102291.03;;;17.36;100.00
42587;BME280;28216;53.362;-6.288;2023-05-21T09:37:44;102286.53;;;17.45;100.00
42587;BME280;28216;53.362;-6.288;2023-05-21T09:40:13;102282.91;;;17.38;100.00
42587;BME280;28216;53.362;-6.288;2023-05-21T09:42:41;102288.38;;;17.44;100.00
42587;BME280;28216;53.362;-6.288;2023-05-21T09:45:10;102281.25;;;17.45;100.00
42587;BME280;28216;53.362;-6.288;2023-05-21T09:47:43;102288.19;;;17.46;100.00
42587;BME280;28216;53.362;-6.288;2023-05-21T09:50:18;102288.69;;;17.50;100.00
42587;BME280;28216;53.362;-6.288;2023-05-21T09:52:56;102286.69;;;17.52;100.00
42587;BME280;28216;53.362;-6.288;2023-05-21T09:55:27;102291.19;;;17.43;100.00
42587;BME280;28216;53.362;-6.288;2023-05-21T09:58:00;102286.88;;;17.50;100.00
42587;BME280;28216;53.362;-6.288;2023-05-21T10:00:29;102293.66;;;17.53;100.00
42587;BME280;28216;53.362;-6.288;2023-05-21T10:03:00;102290.66;;;17.56;100.00
42587;BME280;28216;53.362;-6.288;2023-05-21T10:05:27;102297.28;;;17.60;100.00
42587;BME280;28216;53.362;-6.288;2023-05-21T10:08:01;102291.66;;;17.63;100.00
42587;BME280;28216;53.362;-6.288;2023-05-21T10:10:28;102288.19;;;17.54;100.00
42587;BME280;28216;53.362;-6.288;2023-05-21T10:15:52;102285.53;;;17.46;100.00
42587;BME280;28216;53.362;-6.288;2023-05-21T10:18:22;102284.38;;;17.48;100.00
42587;BME280;28216;53.362;-6.288;2023-05-21T10:20:49;102283.72;;;17.46;100.00
42587;BME280;28216;53.362;-6.288;2023-05-21T10:23:17;102289.19;;;17.45;100.00
42587;BME280;28216;53.362;-6.288;2023-05-21T10:25:44;102292.00;;;17.35;100.00
42587;BME280;28216;53.362;-6.288;2023-05-21T10:28:15;102286.38;;;17.38;100.00
42587;BME280;28216;53.362;-6.288;2023-05-21T10:30:45;102292.84;;;17.36;100.00
42587;BME280;28216;53.362;-6.288;2023-05-21T10:33:15;102285.06;;;17.34;100.00
42587;BME280;28216;53.362;-6.288;2023-05-21T10:35:59;102292.84;;;17.36;100.00
42587;BME280;28216;53.362;-6.288;2023-05-21T10:38:38;102284.88;;;17.36;100.00
42587;BME280;28216;53.362;-6.288;2023-05-21T10:41:10;102286.53;;;17.45;100.00
42587;BME280;28216;53.362;-6.288;2023-05-21T11:00:47;102264.00;;;18.21;100.00
42587;BME280;28216;53.362;-6.288;2023-05-21T11:03:13;102266.28;;;18.32;100.00
42587;BME280;28216;53.362;-6.288;2023-05-21T11:05:56;102263.94;;;18.37;100.00
42587;BME280;28216;53.362;-6.288;2023-05-21T11:08:28;102261.88;;;18.47;100.00
42587;BME280;28216;53.362;-6.288;2023-05-21T11:11:02;102260.50;;;18.59;100.00
42587;BME280;28216;53.362;-6.288;2023-05-21T11:13:47;102257.13;;;18.73;100.00
42587;BME280;28216;53.362;-6.288;2023-05-21T11:16:34;102248.56;;;18.86;100.00
42587;BME280;28216;53.362;-6.288;2023-05-21T11:19:00;102249.50;;;18.93;100.00
42587;BME280;28216;53.362;-6.288;2023-05-21T11:21:28;102251.50;;;18.91;100.00
42587;BME280;28216;53.362;-6.288;2023-05-21T11:24:07;102259.91;;;19.03;100.00
42587;BME280;28216;53.362;-6.288;2023-05-21T11:29:34;102252.72;;;19.26;100.00
42587;BME280;28216;53.362;-6.288;2023-05-21T11:32:07;102245.38;;;19.28;100.00
42587;BME280;28216;53.362;-6.288;2023-05-21T11:35:09;102249.56;;;19.08;100.00
42587;BME280;28216;53.362;-6.288;2023-05-21T11:37:38;102242.53;;;19.30;100.00
42587;BME280;28216;53.362;-6.288;2023-05-21T11:40:17;102250.34;;;19.31;100.00
42587;BME280;28216;53.362;-6.288;2023-05-21T11:42:48;102249.38;;;19.32;100.00
42587;BME280;28216;53.362;-6.288;2023-05-21T11:45:16;102243.88;;;19.34;100.00
42587;BME280;28216;53.362;-6.288;2023-05-21T11:47:43;102236.13;;;19.24;100.00
42587;BME280;28216;53.362;-6.288;2023-05-21T11:50:12;102243.53;;;19.52;100.00
42587;BME280;28216;53.362;-6.288;2023-05-21T11:52:38;102232.38;;;19.56;100.00
42587;BME280;28216;53.362;-6.288;2023-05-21T11:55:05;102236.41;;;19.67;100.00
42587;BME280;28216;53.362;-6.288;2023-05-21T11:57:31;102245.31;;;19.74;100.00
42587;BME280;28216;53.362;-6.288;2023-05-21T11:59:59;102240.06;;;19.66;100.00
42587;BME280;28216;53.362;-6.288;2023-05-21T12:02:30;102230.41;;;19.50;100.00
42587;BME280;28216;53.362;-6.288;2023-05-21T12:04:56;102237.97;;;19.61;100.00
42587;BME280;28216;53.362;-6.288;2023-05-21T12:07:27;102241.53;;;19.68;100.00
42587;BME280;28216;53.362;-6.288;2023-05-21T12:09:56;102246.59;;;19.63;100.00
42587;BME280;28216;53.362;-6.288;2023-05-21T12:12:24;102238.66;;;19.41;100.00
42587;BME280;28216;53.362;-6.288;2023-05-21T12:14:52;102233.22;;;19.34;100.00
42587;BME280;28216;53.362;-6.288;2023-05-21T12:17:22;102237.84;;;19.17;100.00
42587;BME280;28216;53.362;-6.288;2023-05-21T12:19:50;102236.19;;;19.16;100.00
42587;BME280;28216;53.362;-6.288;2023-05-21T12:22:20;102227.66;;;19.21;100.00
42587;BME280;28216;53.362;-6.288;2023-05-21T12:24:45;102235.81;;;19.19;100.00
42587;BME280;28216;53.362;-6.288;2023-05-21T12:27:12;102235.81;;;19.19;100.00
42587;BME280;28216;53.362;-6.288;2023-05-21T12:29:42;102231.81;;;19.23;100.00
42587;BME280;28216;53.362;-6.288;2023-05-21T12:32:11;102236.72;;;19.12;100.00
42587;BME280;28216;53.362;-6.288;2023-05-21T12:34:45;102240.44;;;19.25;100.00
42587;BME280;28216;53.362;-6.288;2023-05-21T12:37:14;102235.81;;;19.19;100.00
42587;BME280;28216;53.362;-6.288;2023-05-21T12:39:46;102231.44;;;19.26;100.00
42587;BME280;28216;53.362;-6.288;2023-05-21T12:42:13;102235.75;;;19.27;100.00
42587;BME280;28216;53.362;-6.288;2023-05-21T12:44:43;102237.13;;;19.23;100.00
42587;BME280;28216;53.362;-6.288;2023-05-21T12:47:09;102240.31;;;19.42;100.00
42587;BME280;28216;53.362;-6.288;2023-05-21T12:49:37;102226.69;;;19.59;100.00
42587;BME280;28216;53.362;-6.288;2023-05-21T12:52:16;102234.03;;;19.72;100.00
42587;BME280;28216;53.362;-6.288;2023-05-21T12:54:47;102229.97;;;19.76;100.00
42587;BME280;28216;53.362;-6.288;2023-05-21T12:57:21;102227.13;;;19.78;100.00
42587;BME280;28216;53.362;-6.288;2023-05-21T12:59:48;102235.28;;;19.91;100.00
42587;BME280;28216;53.362;-6.288;2023-05-21T13:02:37;102220.78;;;19.93;100.00
42587;BME280;28216;53.362;-6.288;2023-05-21T13:05:05;102228.66;;;20.02;100.00
42587;BME280;28216;53.362;-6.288;2023-05-21T13:07:32;102230.50;;;20.01;100.00
42587;BME280;28216;53.362;-6.288;2023-05-21T13:09:59;102228.59;;;20.10;100.00
42587;BME280;28216;53.362;-6.288;2023-05-21T13:12:26;102219.50;;;20.19;100.00
42587;BME280;28216;53.362;-6.288;2023-05-21T13:14:53;102234.09;;;20.23;100.00
42587;BME280;28216;53.362;-6.288;2023-05-21T13:17:20;102226.00;;;20.16;100.00